Time;durP1;ratioP1;P1;durP2;ratioP2;P2;SDS_P1;SDS_P2;PMS_P1;PMS_P2;Temp;Humidity;BMP_temperature;BMP_pressure;BME280_temperature;BME280_humidity;BME280_pressure;Samples;Min_cycle;Max_cycle;Signal;HPM_P1;HPM_P2
2022/05/22 00:00:23;;;;;;;15.73;8.48;;;20.10;99.90;;;;;;5100694;28;20476;-72
2022/05/22 00:02:49;;;;;;;14.15;7.93;;;20.00;99.90;;;;;;5100663;28;20066;-73
2022/05/22 00:05:17;;;;;;;12.77;8.32;;;20.00;99.90;;;;;;5100957;28;20024;-72
2022/05/22 00:07:43;;;;;;;19.20;8.73;;;20.00;99.90;;;;;;5100444;28;20049;-73
2022/05/22 00:10:10;;;;;;;21.00;8.13;;;20.00;99.90;;;;;;5082664;28;20020;-72
2022/05/22 00:12:37;;;;;;;21.20;8.27;;;20.00;99.90;;;;;;5099457;28;20028;-73
2022/05/22 00:15:04;;;;;;;16.77;8.38;;;20.00;99.90;;;;;;5096350;28;20031;-72
2022/05/22 00:17:30;;;;;;;22.92;8.30;;;20.00;99.90;;;;;;5081103;28;20020;-72
2022/05/22 00:19:56;;;;;;;19.42;7.97;;;20.10;99.90;;;;;;5100452;28;20043;-72
2022/05/22 00:22:22;;;;;;;14.13;7.43;;;20.10;99.90;;;;;;5100189;28;20024;-72
2022/05/22 00:24:47;;;;;;;13.48;8.35;;;20.10;99.90;;;;;;5100490;28;20073;-73
2022/05/22 00:27:13;;;;;;;18.40;8.43;;;20.10;99.90;;;;;;5099931;28;20024;-72
2022/05/22 00:29:39;;;;;;;15.18;7.88;;;20.10;99.90;;;;;;5100256;28;20065;-73
2022/05/22 00:32:06;;;;;;;14.02;7.90;;;20.10;99.90;;;;;;5098900;28;20039;-72
2022/05/22 00:34:32;;;;;;;18.80;8.48;;;20.10;99.90;;;;;;5098482;28;20035;-72
2022/05/22 00:36:58;;;;;;;12.63;8.32;;;20.00;99.90;;;;;;5099940;28;20021;-72
2022/05/22 00:39:24;;;;;;;16.95;7.28;;;20.00;99.90;;;;;;5090678;28;20507;-72
2022/05/22 00:41:53;;;;;;;14.85;8.80;;;20.00;99.90;;;;;;5094257;28;20024;-72
2022/05/22 00:44:20;;;;;;;23.83;8.35;;;20.00;99.90;;;;;;5091436;28;20051;-72
2022/05/22 00:46:46;;;;;;;19.33;9.32;;;20.00;99.90;;;;;;5095130;28;20048;-72
2022/05/22 00:49:18;;;;;;;22.48;8.43;;;19.90;99.90;;;;;;5099597;28;20043;-73
2022/05/22 00:52:04;;;;;;;14.85;8.30;;;19.90;99.90;;;;;;5098338;28;20020;-72
2022/05/22 00:54:39;;;;;;;16.88;7.85;;;19.80;99.90;;;;;;5098311;28;20133;-72
2022/05/22 00:57:30;;;;;;;16.70;8.63;;;19.80;99.90;;;;;;5099674;28;20065;-72
2022/05/22 01:00:07;;;;;;;20.50;8.15;;;19.70;99.90;;;;;;5089860;28;20039;-72
2022/05/22 01:03:26;;;;;;;17.35;7.88;;;19.70;99.90;;;;;;5097929;28;20024;-72
2022/05/22 01:05:19;;;;;;;21.73;9.07;;;19.70;99.90;;;;;;5099283;28;20024;-71
2022/05/22 01:07:45;;;;;;;16.83;8.38;;;19.60;99.90;;;;;;5098213;28;20024;-72
2022/05/22 01:10:12;;;;;;;15.27;8.05;;;19.50;99.90;;;;;;5096909;28;20024;-72
2022/05/22 01:12:41;;;;;;;15.77;8.90;;;19.50;99.90;;;;;;5097865;28;20025;-72
2022/05/22 01:15:09;;;;;;;15.27;9.03;;;19.50;99.90;;;;;;5094587;28;21134;-73
2022/05/22 01:17:43;;;;;;;14.93;8.65;;;19.50;99.90;;;;;;5080594;28;20056;-72
2022/05/22 01:20:11;;;;;;;21.60;9.57;;;19.50;99.90;;;;;;5099287;28;20031;-72
2022/05/22 01:22:36;;;;;;;18.00;8.95;;;19.40;99.90;;;;;;5097712;28;20039;-73
2022/05/22 01:25:04;;;;;;;21.73;10.25;;;19.40;99.90;;;;;;5098095;28;20472;-72
2022/05/22 01:27:30;;;;;;;21.60;9.77;;;19.40;99.90;;;;;;5098775;28;20507;-72
2022/05/22 01:30:26;;;;;;;20.40;10.05;;;19.30;99.90;;;;;;5099076;28;20020;-72
2022/05/22 01:32:52;;;;;;;26.08;9.63;;;19.30;99.90;;;;;;5076402;28;20404;-73
2022/05/22 01:35:21;;;;;;;21.52;9.95;;;19.30;99.90;;;;;;5094154;28;20048;-72
2022/05/22 01:37:48;;;;;;;19.45;9.07;;;19.30;99.90;;;;;;5097706;28;20031;-72
2022/05/22 01:40:15;;;;;;;17.05;9.77;;;19.30;99.90;;;;;;5083784;28;20485;-73
2022/05/22 01:42:42;;;;;;;18.10;9.48;;;19.30;99.90;;;;;;5097388;28;20035;-72
2022/05/22 01:45:10;;;;;;;18.58;9.38;;;19.30;99.90;;;;;;5097457;28;20480;-72
2022/05/22 01:47:37;;;;;;;21.67;10.25;;;19.30;99.90;;;;;;5098117;28;20044;-72
2022/05/22 01:50:05;;;;;;;28.77;10.43;;;19.30;99.90;;;;;;5097447;28;20020;-71
2022/05/22 01:52:31;;;;;;;20.85;9.15;;;19.30;99.90;;;;;;5097595;28;20035;-71
2022/05/22 01:54:56;;;;;;;23.27;9.52;;;19.30;99.90;;;;;;5097385;28;20083;-72
2022/05/22 01:57:22;;;;;;;18.15;9.57;;;19.30;99.90;;;;;;5097187;28;20024;-72
2022/05/22 01:59:48;;;;;;;26.77;10.38;;;19.20;99.90;;;;;;5096923;28;20522;-71
2022/05/22 02:02:14;;;;;;;16.85;9.13;;;19.20;99.90;;;;;;5097109;28;20035;-72
2022/05/22 02:04:40;;;;;;;14.82;8.77;;;19.20;99.90;;;;;;5096562;28;20028;-72
2022/05/22 02:09:50;;;;;;;23.58;10.15;;;19.20;99.90;;;;;;5098189;28;20073;-71
2022/05/22 02:12:16;;;;;;;24.85;10.43;;;19.20;99.90;;;;;;5098218;28;20024;-71
2022/05/22 02:14:42;;;;;;;16.27;10.40;;;19.20;99.90;;;;;;5096942;28;20016;-71
2022/05/22 02:17:08;;;;;;;23.90;10.02;;;19.20;99.90;;;;;;5076721;28;20457;-72
2022/05/22 02:19:34;;;;;;;20.38;9.32;;;19.20;99.90;;;;;;5084430;28;20070;-72
2022/05/22 02:22:00;;;;;;;27.77;9.75;;;19.20;99.90;;;;;;5097983;28;20032;-72
2022/05/22 02:24:26;;;;;;;16.70;8.93;;;19.20;99.90;;;;;;5096728;28;20052;-72
2022/05/22 02:26:52;;;;;;;19.00;9.10;;;19.20;99.90;;;;;;5097872;28;20088;-72
2022/05/22 02:29:18;;;;;;;22.23;9.70;;;19.20;99.90;;;;;;5096590;28;20025;-73
2022/05/22 02:31:44;;;;;;;23.00;10.00;;;19.20;99.90;;;;;;5096534;28;20032;-72
2022/05/22 02:34:10;;;;;;;21.42;9.40;;;19.30;99.90;;;;;;5096260;28;20024;-73
2022/05/22 02:36:35;;;;;;;18.02;8.38;;;19.30;99.90;;;;;;5096398;28;20501;-72
2022/05/22 02:39:02;;;;;;;19.17;9.65;;;19.30;99.90;;;;;;5090144;28;20021;-73
2022/05/22 02:41:28;;;;;;;20.40;8.88;;;19.20;99.90;;;;;;5089514;28;20032;-73
2022/05/22 02:43:54;;;;;;;24.30;9.13;;;19.20;99.90;;;;;;5097487;28;20024;-72
2022/05/22 02:46:21;;;;;;;13.45;10.00;;;19.20;99.90;;;;;;5096411;28;20052;-73
2022/05/22 02:48:48;;;;;;;18.60;8.82;;;19.20;99.90;;;;;;5096199;28;20025;-73
2022/05/22 02:51:16;;;;;;;23.48;9.80;;;19.20;99.90;;;;;;5097561;28;20035;-73
2022/05/22 02:53:43;;;;;;;15.38;8.70;;;19.10;99.90;;;;;;5097831;28;20016;-73
2022/05/22 02:56:14;;;;;;;17.67;9.85;;;19.10;99.90;;;;;;5096350;28;20028;-73
2022/05/22 02:58:40;;;;;;;17.92;9.95;;;19.20;99.90;;;;;;5097610;28;20391;-73
2022/05/22 03:01:06;;;;;;;25.45;11.02;;;19.10;99.90;;;;;;5087026;28;20400;-73
2022/05/22 03:03:33;;;;;;;14.77;8.85;;;19.10;99.90;;;;;;5097173;28;20028;-73
2022/05/22 03:08:45;;;;;;;16.52;9.10;;;19.10;99.90;;;;;;5097249;28;20039;-73
2022/05/22 03:11:11;;;;;;;13.82;9.13;;;19.10;99.90;;;;;;5079386;28;20020;-73
2022/05/22 03:13:37;;;;;;;23.25;9.25;;;19.10;99.90;;;;;;5096213;28;20020;-73
2022/05/22 03:16:04;;;;;;;18.67;9.25;;;19.10;99.90;;;;;;5089841;28;20492;-74
2022/05/22 03:18:30;;;;;;;14.55;9.13;;;19.20;99.90;;;;;;5095600;28;20047;-73
2022/05/22 03:20:58;;;;;;;18.30;9.15;;;19.10;99.90;;;;;;5095694;28;20484;-73
2022/05/22 03:23:23;;;;;;;18.73;9.18;;;19.10;99.90;;;;;;5097298;28;20047;-73
2022/05/22 03:25:49;;;;;;;19.30;9.35;;;19.00;99.90;;;;;;5096996;28;20103;-73
2022/05/22 03:28:16;;;;;;;20.48;9.50;;;19.00;99.90;;;;;;5097184;28;20020;-73
2022/05/22 03:30:43;;;;;;;20.08;8.00;;;19.00;99.90;;;;;;5095832;28;20360;-73
2022/05/22 03:33:09;;;;;;;16.48;8.40;;;18.90;99.90;;;;;;5098180;28;20031;-74
2022/05/22 03:35:36;;;;;;;14.48;8.95;;;18.90;99.90;;;;;;5100071;28;20135;-73
2022/05/22 03:38:03;;;;;;;16.25;8.95;;;18.90;99.90;;;;;;5099757;28;20031;-73
2022/05/22 03:40:29;;;;;;;18.88;10.20;;;18.80;99.90;;;;;;5086155;28;20109;-73
2022/05/22 03:42:55;;;;;;;15.20;8.48;;;18.80;99.90;;;;;;5099783;28;20024;-73
2022/05/22 03:45:20;;;;;;;20.92;9.05;;;18.70;99.90;;;;;;5100699;28;20020;-73
2022/05/22 03:47:46;;;;;;;16.85;8.70;;;18.70;99.90;;;;;;5100851;28;20020;-73
2022/05/22 03:50:13;;;;;;;16.73;8.82;;;18.70;99.90;;;;;;5100873;28;20028;-73
2022/05/22 03:52:42;;;;;;;16.52;8.23;;;18.50;99.90;;;;;;5099859;28;20073;-73
2022/05/22 03:55:12;;;;;;;13.25;9.40;;;18.40;99.90;;;;;;5099492;28;20508;-74
2022/05/22 03:57:38;;;;;;;13.40;8.50;;;18.30;99.90;;;;;;5101005;28;20016;-73
2022/05/22 04:00:07;;;;;;;18.85;9.52;;;18.30;99.90;;;;;;5099203;28;20039;-73
2022/05/22 04:02:33;;;;;;;11.73;7.05;;;18.30;99.90;;;;;;5100521;28;20023;-73
2022/05/22 04:04:59;;;;;;;18.60;8.93;;;18.20;99.90;;;;;;5100508;28;20032;-73
2022/05/22 04:07:25;;;;;;;18.38;8.90;;;18.10;99.90;;;;;;5099258;28;20024;-73
2022/05/22 04:09:51;;;;;;;17.42;9.38;;;18.20;99.90;;;;;;5100679;28;20028;-74
2022/05/22 04:12:17;;;;;;;14.13;9.38;;;18.10;99.90;;;;;;5100640;28;20108;-73
2022/05/22 04:14:43;;;;;;;20.17;8.93;;;18.20;99.90;;;;;;5100267;28;20075;-73
2022/05/22 04:17:09;;;;;;;19.50;9.30;;;18.10;99.90;;;;;;5078897;28;20028;-73
2022/05/22 04:19:37;;;;;;;16.50;8.95;;;18.10;99.90;;;;;;5099299;28;20038;-73
2022/05/22 04:22:04;;;;;;;19.80;10.85;;;18.10;99.90;;;;;;5100285;28;20012;-73
2022/05/22 04:27:14;;;;;;;11.88;8.13;;;18.10;99.90;;;;;;5100085;28;20511;-73
2022/05/22 04:29:41;;;;;;;16.92;9.85;;;18.10;99.90;;;;;;5098858;28;20024;-73
2022/05/22 04:32:07;;;;;;;21.45;9.20;;;18.10;99.90;;;;;;5100395;28;20357;-73
2022/05/22 04:34:33;;;;;;;14.13;7.88;;;18.10;99.90;;;;;;5098661;28;20109;-73
2022/05/22 04:36:59;;;;;;;14.75;8.30;;;18.10;99.90;;;;;;5100056;28;20036;-73
2022/05/22 04:39:25;;;;;;;18.15;8.48;;;18.10;99.90;;;;;;5089488;28;20021;-73
2022/05/22 04:41:51;;;;;;;19.08;8.73;;;18.20;99.90;;;;;;5095714;28;20040;-73
2022/05/22 04:44:17;;;;;;;13.02;8.15;;;18.10;99.90;;;;;;5098237;28;20035;-74
2022/05/22 04:46:42;;;;;;;14.20;7.75;;;18.20;99.90;;;;;;5099701;28;20097;-73
2022/05/22 04:49:08;;;;;;;15.43;8.43;;;18.20;99.90;;;;;;5099878;28;20031;-73
2022/05/22 04:51:34;;;;;;;19.45;8.57;;;18.20;99.90;;;;;;5098742;28;20560;-74
2022/05/22 04:54:00;;;;;;;23.40;9.20;;;18.20;99.90;;;;;;5099807;28;20033;-73
2022/05/22 04:56:26;;;;;;;16.45;9.32;;;18.30;99.90;;;;;;5099949;28;20031;-73
2022/05/22 04:58:52;;;;;;;16.67;8.57;;;18.30;99.90;;;;;;5098269;28;20036;-73
2022/05/22 05:01:19;;;;;;;19.30;9.25;;;18.30;99.90;;;;;;5098499;28;20024;-74
2022/05/22 05:03:45;;;;;;;12.32;9.05;;;18.40;99.90;;;;;;5099236;28;20039;-73
2022/05/22 05:06:10;;;;;;;13.95;9.45;;;18.40;99.90;;;;;;5099491;28;20024;-73
2022/05/22 05:08:36;;;;;;;13.20;8.57;;;18.50;99.90;;;;;;5098157;28;20072;-73
2022/05/22 05:11:03;;;;;;;21.40;8.63;;;18.60;99.90;;;;;;5099412;28;20026;-73
2022/05/22 05:13:29;;;;;;;17.73;9.68;;;18.60;99.90;;;;;;5098168;28;20020;-73
2022/05/22 05:16:04;;;;;;;14.82;9.52;;;18.60;99.90;;;;;;5091489;28;20008;-73
2022/05/22 05:18:30;;;;;;;19.45;10.43;;;18.60;99.90;;;;;;5099167;28;20069;-73
2022/05/22 05:21:00;;;;;;;29.10;12.05;;;18.70;99.90;;;;;;5099145;28;20017;-73
2022/05/22 05:23:26;;;;;;;20.02;10.82;;;18.70;99.90;;;;;;5098203;28;20074;-73
2022/05/22 05:25:52;;;;;;;17.85;10.50;;;18.70;99.90;;;;;;5098945;28;20035;-73
2022/05/22 05:28:18;;;;;;;17.77;10.40;;;18.70;99.90;;;;;;5099169;28;20028;-73
2022/05/22 05:30:44;;;;;;;20.08;10.55;;;18.80;99.90;;;;;;5098110;28;20028;-74
2022/05/22 05:33:10;;;;;;;16.35;9.85;;;18.80;99.90;;;;;;5086487;28;20038;-73
2022/05/22 05:35:36;;;;;;;21.85;10.05;;;18.90;99.90;;;;;;5097578;28;20020;-73
2022/05/22 05:38:02;;;;;;;16.95;9.80;;;18.90;99.90;;;;;;5094784;28;20028;-73
2022/05/22 05:40:29;;;;;;;17.05;9.93;;;18.90;99.90;;;;;;5085120;28;20024;-73
2022/05/22 05:42:55;;;;;;;15.68;9.68;;;19.00;99.90;;;;;;5080795;28;20438;-73
2022/05/22 05:45:21;;;;;;;17.38;9.77;;;19.00;99.90;;;;;;5098514;28;20020;-73
2022/05/22 05:47:48;;;;;;;21.13;10.27;;;19.10;99.90;;;;;;5087214;28;20512;-74
2022/05/22 05:50:21;;;;;;;18.30;9.65;;;19.20;99.90;;;;;;5098542;28;20020;-73
2022/05/22 05:52:49;;;;;;;15.00;10.45;;;19.20;99.90;;;;;;5098975;28;20020;-73
2022/05/22 05:55:16;;;;;;;19.98;9.35;;;19.30;99.90;;;;;;5098220;28;20016;-74
2022/05/22 05:57:42;;;;;;;19.25;8.82;;;19.40;99.90;;;;;;5098196;28;20073;-73
2022/05/22 06:00:10;;;;;;;13.40;9.43;;;19.50;99.90;;;;;;5098246;28;20490;-73
2022/05/22 06:02:35;;;;;;;15.32;9.27;;;19.70;99.90;;;;;;5098138;28;20028;-73
2022/05/22 06:05:02;;;;;;;14.13;8.52;;;19.80;99.90;;;;;;5096888;28;20469;-74
2022/05/22 06:07:28;;;;;;;18.70;8.82;;;19.90;99.90;;;;;;5097253;28;20028;-73
2022/05/22 06:09:54;;;;;;;16.88;9.13;;;20.10;99.90;;;;;;5096844;28;20488;-73
2022/05/22 06:12:20;;;;;;;15.02;8.88;;;20.20;99.90;;;;;;5097184;28;20480;-74
2022/05/22 06:14:46;;;;;;;17.40;8.80;;;20.30;99.90;;;;;;5090017;28;20385;-73
2022/05/22 06:17:13;;;;;;;17.58;8.30;;;20.40;99.90;;;;;;5091119;28;20024;-73
2022/05/22 06:19:54;;;;;;;15.02;8.02;;;20.50;99.90;;;;;;5096818;28;20020;-73
2022/05/22 06:22:25;;;;;;;13.85;8.05;;;20.50;99.90;;;;;;5098060;28;20024;-73
2022/05/22 06:24:52;;;;;;;14.65;8.57;;;20.60;99.90;;;;;;5098120;28;20020;-74
2022/05/22 06:27:18;;;;;;;17.13;9.05;;;20.60;99.90;;;;;;5096776;28;20154;-73
2022/05/22 06:29:44;;;;;;;24.52;8.88;;;20.70;99.90;;;;;;5096756;28;20510;-74
2022/05/22 06:32:16;;;;;;;16.38;8.00;;;20.70;99.90;;;;;;5096417;28;20077;-73
2022/05/22 06:34:42;;;;;;;19.67;8.70;;;20.80;99.90;;;;;;5096833;28;20027;-73
2022/05/22 06:37:15;;;;;;;15.18;8.00;;;20.90;99.90;;;;;;5097723;28;20111;-73
2022/05/22 06:39:51;;;;;;;18.63;7.90;;;21.00;99.90;;;;;;5086365;28;20027;-74
2022/05/22 06:42:21;;;;;;;11.70;7.90;;;21.00;99.90;;;;;;5086551;28;20017;-74
2022/05/22 06:45:11;;;;;;;16.63;8.10;;;21.10;99.90;;;;;;5076874;28;20492;-73
2022/05/22 06:47:38;;;;;;;10.20;6.93;;;21.30;99.90;;;;;;5077681;28;20044;-74
2022/05/22 06:50:07;;;;;;;17.25;7.43;;;21.30;99.90;;;;;;5076095;28;20024;-73
2022/05/22 06:52:33;;;;;;;9.57;6.13;;;21.60;99.90;;;;;;5086901;28;20031;-74
2022/05/22 06:55:00;;;;;;;13.65;7.50;;;21.90;99.90;;;;;;5096176;28;20032;-74
2022/05/22 06:57:27;;;;;;;8.80;6.03;;;22.00;99.90;;;;;;5096450;28;20818;-74
2022/05/22 06:59:55;;;;;;;16.23;5.90;;;22.20;99.90;;;;;;5095956;28;20039;-73
2022/05/22 07:02:21;;;;;;;11.25;5.07;;;22.40;99.90;;;;;;5095808;28;20488;-73
2022/05/22 07:04:47;;;;;;;11.80;5.43;;;22.50;99.90;;;;;;5097369;28;20027;-74
2022/05/22 07:07:13;;;;;;;8.63;5.13;;;22.70;99.90;;;;;;5096683;28;20111;-73
2022/05/22 07:09:39;;;;;;;12.25;4.00;;;22.80;99.90;;;;;;5095844;28;20393;-73
2022/05/22 07:12:10;;;;;;;8.95;4.90;;;23.10;99.90;;;;;;5097249;28;20028;-73
2022/05/22 07:14:37;;;;;;;10.25;4.82;;;23.20;99.90;;;;;;5097034;28;20024;-74
2022/05/22 07:17:04;;;;;;;10.60;4.55;;;23.30;99.90;;;;;;5076720;28;20040;-74
2022/05/22 07:19:34;;;;;;;8.50;4.50;;;23.40;99.90;;;;;;5095994;28;20488;-73
2022/05/22 07:22:01;;;;;;;9.60;4.50;;;23.50;99.90;;;;;;5097158;28;20107;-73
2022/05/22 07:24:28;;;;;;;14.05;4.35;;;23.60;99.90;;;;;;5096021;28;20024;-74
2022/05/22 07:26:54;;;;;;;11.80;4.15;;;23.50;99.90;;;;;;5097004;28;20020;-73
2022/05/22 07:29:19;;;;;;;8.10;4.22;;;23.50;99.90;;;;;;5096963;28;20043;-73
2022/05/22 07:31:45;;;;;;;8.85;4.03;;;23.60;99.90;;;;;;5095720;28;20020;-73
2022/05/22 07:34:11;;;;;;;7.82;3.33;;;23.90;99.90;;;;;;5095256;28;20099;-73
2022/05/22 07:36:37;;;;;;;13.77;3.75;;;24.10;99.90;;;;;;5090587;28;20013;-73
2022/05/22 07:39:05;;;;;;;10.45;4.00;;;24.40;99.90;;;;;;5089165;28;20385;-73
2022/05/22 07:41:31;;;;;;;6.15;3.95;;;24.50;99.90;;;;;;5090176;28;20038;-74
2022/05/22 07:43:58;;;;;;;6.57;3.97;;;24.60;99.90;;;;;;5095809;28;20106;-73
2022/05/22 07:46:24;;;;;;;8.27;3.60;;;24.70;99.90;;;;;;5096808;28;20059;-74
2022/05/22 07:48:50;;;;;;;9.20;3.72;;;24.80;99.90;;;;;;5096625;28;20066;-73
2022/05/22 07:51:16;;;;;;;9.40;4.00;;;24.90;99.90;;;;;;5096843;28;20020;-73
2022/05/22 07:53:43;;;;;;;8.73;3.70;;;24.80;99.90;;;;;;5095674;28;20020;-73
2022/05/22 07:56:09;;;;;;;6.70;3.30;;;24.90;99.90;;;;;;5095443;28;20016;-73
2022/05/22 07:58:35;;;;;;;8.80;3.65;;;24.90;99.90;;;;;;5096889;28;20028;-73
2022/05/22 08:01:02;;;;;;;12.13;3.75;;;25.00;99.90;;;;;;5096674;28;20012;-73
2022/05/22 08:03:29;;;;;;;10.27;3.90;;;25.00;99.90;;;;;;5095171;28;20063;-74
2022/05/22 08:05:55;;;;;;;7.90;3.63;;;25.10;99.90;;;;;;5094069;28;20059;-73
2022/05/22 08:08:22;;;;;;;10.27;3.78;;;25.30;99.90;;;;;;5095473;28;20092;-73
2022/05/22 08:10:48;;;;;;;8.25;3.40;;;25.20;99.90;;;;;;5096902;28;20518;-73
2022/05/22 08:13:14;;;;;;;5.90;3.45;;;24.90;99.90;;;;;;5097120;28;20024;-74
2022/05/22 08:15:42;;;;;;;8.77;3.45;;;24.90;99.90;;;;;;5084061;28;20496;-74
2022/05/22 08:18:09;;;;;;;7.50;3.63;;;25.00;99.90;;;;;;5076146;28;20031;-74
2022/05/22 08:20:37;;;;;;;8.85;3.38;;;25.00;99.90;;;;;;5080771;28;20058;-73
2022/05/22 08:23:11;;;;;;;10.48;4.07;;;25.20;99.90;;;;;;5099129;28;20024;-73
2022/05/22 08:25:36;;;;;;;9.68;4.05;;;25.30;99.90;;;;;;5100604;28;20031;-74
2022/05/22 08:28:04;;;;;;;10.20;3.92;;;25.40;99.90;;;;;;5098781;28;20020;-73
2022/05/22 08:30:30;;;;;;;9.23;4.00;;;25.60;99.90;;;;;;5100085;28;20027;-73
2022/05/22 08:32:56;;;;;;;8.73;3.10;;;25.60;99.90;;;;;;5100028;28;20447;-73
2022/05/22 08:35:26;;;;;;;8.98;3.45;;;25.70;99.90;;;;;;5092944;28;20029;-73
2022/05/22 08:37:52;;;;;;;7.53;3.28;;;25.70;99.90;;;;;;5100274;28;20035;-72
2022/05/22 08:40:22;;;;;;;7.38;3.03;;;25.90;99.90;;;;;;5084890;28;20081;-74
2022/05/22 08:42:50;;;;;;;9.27;2.95;;;26.00;99.90;;;;;;5100142;28;20033;-71
2022/05/22 08:45:19;;;;;;;8.48;3.30;;;26.10;99.90;;;;;;5098677;28;20028;-71
2022/05/22 08:48:29;;;;;;;9.20;3.45;;;26.10;99.90;;;;;;5098317;28;20036;-73
2022/05/22 08:50:58;;;;;;;7.07;3.20;;;26.20;99.90;;;;;;5099887;28;20024;-72
2022/05/22 08:53:52;;;;;;;8.05;3.42;;;26.20;99.90;;;;;;5099715;28;20020;-72
2022/05/22 08:59:32;;;;;;;8.55;3.80;;;26.30;99.90;;;;;;5099709;28;20042;-72
2022/05/22 09:02:22;;;;;;;10.25;3.72;;;26.40;99.90;;;;;;5099566;28;20384;-73
2022/05/22 09:05:01;;;;;;;7.60;3.85;;;26.60;99.90;;;;;;5098202;28;20020;-72
2022/05/22 09:07:39;;;;;;;6.22;4.15;;;26.60;99.90;;;;;;5098138;28;20101;-73
2022/05/22 09:10:25;;;;;;;10.50;4.32;;;26.60;99.90;;;;;;5086578;28;20021;-73
2022/05/22 09:12:55;;;;;;;13.52;4.35;;;26.70;99.90;;;;;;5099161;28;20092;-73
2022/05/22 09:15:34;;;;;;;7.70;3.22;;;26.70;99.90;;;;;;5092927;28;20021;-72
2022/05/22 09:18:29;;;;;;;10.50;3.78;;;26.60;99.90;;;;;;5091948;28;20373;-72
2022/05/22 09:21:01;;;;;;;12.07;3.75;;;26.70;99.90;;;;;;5078996;28;20048;-73
2022/05/22 09:23:48;;;;;;;6.85;3.00;;;26.80;99.90;;;;;;5077991;28;20063;-72
2022/05/22 09:26:38;;;;;;;9.55;3.30;;;26.80;99.80;;;;;;5094897;28;20058;-72
2022/05/22 09:29:13;;;;;;;6.40;2.90;;;26.80;97.80;;;;;;5096466;28;20028;-72
2022/05/22 09:31:44;;;;;;;5.50;3.05;;;26.80;98.70;;;;;;5098228;28;20104;-72
2022/05/22 09:34:43;;;;;;;5.18;2.72;;;27.00;98.30;;;;;;5098692;28;20028;-72
2022/05/22 09:37:31;;;;;;;5.65;2.45;;;27.10;98.00;;;;;;5098938;28;20024;-72
2022/05/22 09:40:28;;;;;;;4.63;2.78;;;27.40;97.80;;;;;;5084246;28;20035;-72
2022/05/22 09:43:11;;;;;;;7.35;3.13;;;27.50;96.80;;;;;;5097565;28;20031;-72
2022/05/22 09:46:14;;;;;;;6.38;3.05;;;27.60;96.30;;;;;;5082092;28;20123;-72
2022/05/22 09:48:42;;;;;;;10.27;3.20;;;27.60;96.40;;;;;;5080130;28;20039;-72
2022/05/22 09:51:32;;;;;;;9.95;3.40;;;27.80;96.10;;;;;;5089022;28;20115;-72
2022/05/22 09:54:27;;;;;;;7.32;3.17;;;27.90;96.80;;;;;;5088581;28;20021;-72
2022/05/22 09:57:08;;;;;;;7.75;3.30;;;28.00;95.80;;;;;;5082549;28;20027;-73
2022/05/22 09:59:39;;;;;;;12.13;3.17;;;28.00;96.10;;;;;;5078701;28;20047;-73
2022/05/22 10:02:24;;;;;;;5.13;2.78;;;28.20;95.90;;;;;;5078475;28;20020;-73
2022/05/22 10:05:25;;;;;;;7.35;3.08;;;28.20;94.10;;;;;;5079865;28;20017;-73
2022/05/22 10:07:59;;;;;;;5.00;2.53;;;28.50;95.80;;;;;;5071455;28;20036;-72
2022/05/22 10:10:57;;;;;;;7.57;2.45;;;28.70;93.00;;;;;;5076393;28;20107;-73
2022/05/22 10:14:13;;;;;;;6.10;2.53;;;28.80;92.40;;;;;;5073556;28;20625;-72
2022/05/22 10:17:01;;;;;;;7.70;2.83;;;28.90;91.60;;;;;;5053161;28;20473;-72
2022/05/22 10:19:38;;;;;;;4.22;2.05;;;29.10;91.50;;;;;;5079971;28;20023;-72
2022/05/22 10:22:14;;;;;;;7.22;2.30;;;29.10;89.50;;;;;;5078385;28;20036;-73
2022/05/22 10:25:03;;;;;;;8.15;2.83;;;29.30;90.60;;;;;;5076578;28;20047;-72
2022/05/22 10:28:06;;;;;;;8.05;2.70;;;29.10;90.10;;;;;;5078912;28;20054;-73
2022/05/22 10:30:49;;;;;;;9.10;2.85;;;28.80;90.70;;;;;;5095804;28;20020;-72
2022/05/22 10:33:38;;;;;;;7.20;2.53;;;28.60;90.80;;;;;;5079230;28;20113;-72
2022/05/22 10:36:17;;;;;;;7.78;3.05;;;28.60;91.50;;;;;;5077369;28;20481;-72
2022/05/22 10:39:00;;;;;;;10.20;2.85;;;28.70;92.00;;;;;;5076194;28;20021;-72
2022/05/22 10:44:35;;;;;;;5.93;3.00;;;29.00;91.70;;;;;;5077375;28;20048;-72
2022/05/22 10:47:02;;;;;;;8.13;2.95;;;29.40;91.10;;;;;;5078365;28;20523;-72
2022/05/22 10:49:43;;;;;;;6.28;3.03;;;29.60;90.70;;;;;;5076400;28;20078;-72
2022/05/22 10:52:21;;;;;;;4.03;2.63;;;29.80;86.90;;;;;;5078214;28;20028;-72
2022/05/22 10:54:55;;;;;;;9.52;2.42;;;29.80;85.90;;;;;;5076144;28;20024;-72
2022/05/22 10:57:28;;;;;;;5.45;2.60;;;30.00;85.40;;;;;;5077671;28;20017;-72
2022/05/22 10:59:54;;;;;;;4.82;2.42;;;30.00;83.80;;;;;;5078365;28;20060;-72
2022/05/22 11:02:30;;;;;;;8.52;2.85;;;29.80;85.50;;;;;;5078745;28;20024;-73
2022/05/22 11:04:58;;;;;;;5.07;2.72;;;29.80;87.10;;;;;;5074678;28;20020;-72
2022/05/22 11:07:34;;;;;;;7.82;2.97;;;29.70;85.60;;;;;;5077378;28;20025;-73
2022/05/22 11:10:20;;;;;;;6.70;2.35;;;30.00;85.30;;;;;;5077154;28;20028;-73
2022/05/22 11:12:57;;;;;;;7.68;3.00;;;30.30;84.20;;;;;;5079780;28;20665;-72
2022/05/22 11:15:30;;;;;;;6.75;2.83;;;30.50;82.70;;;;;;5079473;28;20020;-72
2022/05/22 11:18:05;;;;;;;8.07;2.85;;;30.40;82.90;;;;;;5076122;28;20028;-72
2022/05/22 11:20:31;;;;;;;6.65;2.50;;;30.30;82.70;;;;;;5077406;28;20021;-73
2022/05/22 11:23:34;;;;;;;7.38;2.40;;;29.80;82.70;;;;;;5078540;28;20027;-73
2022/05/22 11:26:34;;;;;;;7.35;3.05;;;29.50;84.60;;;;;;5096776;28;20031;-73
2022/05/22 11:29:43;;;;;;;7.90;2.53;;;29.10;85.70;;;;;;5076947;28;20050;-72
2022/05/22 11:32:36;;;;;;;10.73;3.22;;;29.10;86.50;;;;;;5094037;28;20031;-72
2022/05/22 11:35:08;;;;;;;9.35;2.88;;;29.40;87.50;;;;;;5078948;28;20050;-73
2022/05/22 11:37:58;;;;;;;7.80;2.45;;;29.70;87.00;;;;;;5079804;28;20017;-73
2022/05/22 11:40:27;;;;;;;6.45;2.10;;;29.80;85.50;;;;;;5079221;28;20028;-72
2022/05/22 11:43:03;;;;;;;10.05;2.55;;;30.00;85.40;;;;;;5075276;28;20020;-72
2022/05/22 11:46:01;;;;;;;6.07;3.03;;;30.00;87.10;;;;;;5077691;28;20024;-72
2022/05/22 11:49:07;;;;;;;6.35;2.70;;;30.10;84.40;;;;;;5077978;28;20020;-74
2022/05/22 11:51:55;;;;;;;8.35;2.67;;;30.10;83.70;;;;;;5077731;28;20039;-73
2022/05/22 11:54:47;;;;;;;10.05;2.75;;;30.10;83.60;;;;;;5073998;28;20111;-73
2022/05/22 11:57:19;;;;;;;5.50;2.83;;;30.20;83.30;;;;;;5079923;28;20500;-72
2022/05/22 11:59:54;;;;;;;6.15;2.20;;;30.40;85.90;;;;;;5081589;28;20377;-72
2022/05/22 12:02:26;;;;;;;5.80;3.20;;;30.40;84.70;;;;;;5081517;28;20021;-72
2022/05/22 12:05:24;;;;;;;7.95;2.70;;;30.30;82.40;;;;;;5084796;28;20012;-73
2022/05/22 12:08:15;;;;;;;8.20;2.17;;;30.40;84.00;;;;;;5069957;28;20040;-72
2022/05/22 12:11:07;;;;;;;;;;;30.50;81.80;;;;;;5081522;28;20417;-73
2022/05/22 12:13:47;;;;;;;6.45;2.45;;;30.60;81.90;;;;;;5063842;28;19904;-72
2022/05/22 12:16:19;;;;;;;;;;;30.50;83.10;;;;;;5083045;28;20096;-73
2022/05/22 12:18:55;;;;;;;9.57;2.63;;;30.60;83.40;;;;;;5079831;28;20306;-72
2022/05/22 12:21:32;;;;;;;8.98;3.42;;;30.70;80.20;;;;;;5077848;28;20024;-72
2022/05/22 12:24:20;;;;;;;4.63;2.53;;;31.00;82.20;;;;;;5082133;28;20457;-72
2022/05/22 12:26:49;;;;;;;9.05;3.25;;;31.10;78.70;;;;;;5080358;28;20029;-72
2022/05/22 12:29:33;;;;;;;10.38;2.90;;;31.10;79.10;;;;;;5083912;28;20031;-73
2022/05/22 12:32:11;;;;;;;6.72;3.10;;;31.10;79.80;;;;;;5079999;28;20021;-72
2022/05/22 12:34:51;;;;;;;13.77;3.85;;;30.90;79.80;;;;;;5079166;28;20016;-72
2022/05/22 12:37:31;;;;;;;10.48;2.47;;;30.80;79.10;;;;;;5081326;28;20025;-73
2022/05/22 12:40:13;;;;;;;14.18;3.28;;;30.50;79.80;;;;;;5079250;28;20025;-72
2022/05/22 12:42:43;;;;;;;5.75;2.80;;;30.40;79.70;;;;;;5078415;28;20019;-72
2022/05/22 12:45:09;;;;;;;8.27;2.40;;;30.60;81.60;;;;;;5080204;28;20028;-72
2022/05/22 12:47:45;;;;;;;6.45;2.72;;;30.90;79.00;;;;;;5080518;28;20170;-72
2022/05/22 12:50:23;;;;;;;7.55;3.05;;;31.30;77.90;;;;;;5083319;28;20025;-72
2022/05/22 12:52:53;;;;;;;6.40;2.67;;;31.50;77.70;;;;;;5080655;28;20021;-72
2022/05/22 12:55:34;;;;;;;5.10;2.80;;;31.60;77.50;;;;;;5078384;28;20017;-73
2022/05/22 12:58:03;;;;;;;7.75;2.88;;;31.70;78.60;;;;;;5080028;28;20024;-73
2022/05/22 13:00:38;;;;;;;5.68;2.58;;;32.00;81.90;;;;;;5080015;28;20216;-73
2022/05/22 13:03:25;;;;;;;7.18;3.00;;;32.30;78.20;;;;;;5082243;28;20224;-73
2022/05/22 13:06:19;;;;;;;7.65;2.60;;;32.30;77.30;;;;;;5077901;28;20024;-73
2022/05/22 13:08:56;;;;;;;8.48;3.25;;;32.60;76.00;;;;;;5071786;28;20111;-73
2022/05/22 13:11:49;;;;;;;10.73;3.25;;;32.70;75.90;;;;;;5081730;28;20017;-73
2022/05/22 13:14:44;;;;;;;10.73;2.78;;;32.70;77.70;;;;;;5080497;28;20028;-72
2022/05/22 13:17:12;;;;;;;10.70;2.97;;;32.60;78.40;;;;;;5076915;28;20120;-73
2022/05/22 13:19:53;;;;;;;6.55;2.53;;;32.50;80.30;;;;;;5079699;28;20036;-73